PAGY/SGY METAR and TAF weather

Enter ICAO airport designator
Station Type Date Time Source
PAGY METAR 2021/07/26 14:53 UTC NOAA

PAGY 261453Z AUTO 00000KT 10SM FEW020 OVC055 11/09 A2997 RMK AO2 SLP149 T01110089 56005 TSNO


Station Type Date Time Source
PAGY Decoded METAR 2021/07/26 14:53 UTC NOAA

SKAGWAY AIRPORT, AK, United States (PAGY) 59-28N 135-19W 5M
Jul 26, 2021 - 10:53 AM EDT / 2021.07.26 1453 UTC
Wind: Calm:0
Visibility: 10 mile(s):0
Sky conditions: overcast
Temperature: 52.0 F (11.1 C)
Dew Point: 48.0 F (8.9 C)
Relative Humidity: 86%
Pressure (altimeter): 29.97 in. Hg (1014 hPa)
Pressure tendency: 0.01 inches (0.5 hPa) lower than three hours ago
ob: PAGY 261453Z AUTO 00000KT 10SM FEW020 OVC055 11/09 A2997 RMK AO2 SLP149 T01110089 56005 TSNO
cycle: 15

Station Type Date Time Source
PAGY TAF 2021/07/26 12:45 UTC NOAA

TAF PAGY 261140Z 2612/2712 VRB02KT P6SM OVC070
FM261700 21005KT P6SM OVC070
FM262000 21010KT P6SM OVC070
AMD LTD TO CLD VIS AND WIND

Example: see airport list